createdAt,value
2016-06-04T00:00:22.026Z,18.9
2016-06-04T00:01:21.857Z,18.88
2016-06-04T00:02:22.000Z,18.86
2016-06-04T00:03:21.987Z,18.86
2016-06-04T00:04:21.975Z,18.96
2016-06-04T00:05:21.961Z,19
2016-06-04T00:06:21.933Z,19.08
2016-06-04T00:07:21.920Z,19.24
2016-06-04T00:08:21.907Z,19.07
2016-06-04T00:09:21.879Z,19.16
2016-06-04T00:10:21.710Z,18.8
2016-06-04T00:11:22.509Z,18.6
2016-06-04T00:12:21.682Z,18.56
2016-06-04T00:13:21.827Z,18.7
2016-06-04T00:14:21.798Z,18.8
2016-06-04T00:15:21.785Z,18.8
2016-06-04T00:16:21.772Z,18.68
2016-06-04T00:17:21.759Z,18.77
2016-06-04T00:18:21.746Z,18.84
2016-06-04T00:19:21.733Z,18.62
2016-06-04T00:20:21.705Z,18.58
2016-06-04T00:21:21.692Z,18.78
2016-06-04T00:22:21.679Z,18.8
2016-06-04T00:23:21.744Z,18.68
2016-06-04T00:24:21.637Z,18.8
2016-06-04T00:25:21.625Z,18.75
2016-06-04T00:26:21.628Z,18.73
2016-06-04T00:27:21.598Z,18.84
2016-06-04T00:28:21.569Z,18.81
2016-06-04T00:29:21.573Z,18.71
2016-06-04T00:30:21.544Z,18.75
2016-06-04T00:31:21.531Z,18.62
2016-06-04T00:32:21.518Z,18.77
2016-06-04T00:33:21.489Z,18.81
2016-06-04T00:34:21.477Z,18.83
2016-06-04T00:35:21.464Z,18.77
2016-06-04T00:36:21.451Z,18.83
2016-06-04T00:37:21.438Z,18.75
2016-06-04T00:38:21.441Z,18.6
2016-06-04T00:39:21.397Z,18.62
2016-06-04T00:40:21.383Z,18.78
2016-06-04T00:41:21.605Z,18.73
2016-06-04T00:42:21.358Z,18.78
2016-06-04T00:43:21.329Z,18.78
2016-06-04T00:44:21.316Z,18.86
2016-06-04T00:45:21.303Z,18.86
2016-06-04T00:46:21.135Z,18.83
2016-06-04T00:47:21.262Z,18.9
2016-06-04T00:48:21.249Z,18.93
2016-06-04T00:49:21.236Z,19.08
2016-06-04T00:50:21.223Z,18.99
2016-06-04T00:51:21.210Z,18.98
2016-06-04T00:52:21.040Z,18.78
2016-06-04T00:53:21.169Z,18.84
2016-06-04T00:54:21.171Z,18.63
2016-06-04T00:55:21.142Z,18.43
2016-06-04T00:56:21.301Z,18.45
2016-06-04T00:57:21.101Z,18.49
2016-06-04T00:58:21.089Z,18.55
2016-06-04T00:59:21.087Z,18.47
2016-06-04T01:00:21.108Z,18.44
2016-06-04T01:01:21.128Z,18.53
2016-06-04T01:02:21.134Z,18.58
2016-06-04T01:03:21.154Z,18.59
2016-06-04T01:04:21.182Z,18.5
2016-06-04T01:05:21.166Z,18.52
2016-06-04T01:06:20.681Z,18.52
2016-06-04T01:07:21.148Z,18.44
2016-06-04T01:08:21.147Z,18.4
2016-06-04T01:09:21.127Z,18.11
2016-06-04T01:10:21.118Z,18.2
2016-06-04T01:11:21.125Z,18.31
2016-06-04T01:12:21.101Z,18.41
2016-06-04T01:13:21.092Z,18.33
2016-06-04T01:14:21.145Z,18.38
2016-06-04T01:15:21.071Z,18.41
2016-06-04T01:16:21.044Z,18.5
2016-06-04T01:17:21.032Z,18.52
2016-06-04T01:18:21.022Z,18.62
2016-06-04T01:19:21.009Z,18.65
2016-06-04T01:20:20.981Z,18.47
2016-06-04T01:21:20.969Z,18.52
2016-06-04T01:22:20.957Z,18.35
2016-06-04T01:23:20.960Z,18.49
2016-06-04T01:24:20.947Z,18.58
2016-06-04T01:25:20.919Z,18.55
2016-06-04T01:26:20.750Z,18.6
2016-06-04T01:27:20.862Z,18.62
2016-06-04T01:28:20.850Z,18.75
2016-06-04T01:29:20.837Z,18.83
2016-06-04T01:30:20.824Z,18.83
2016-06-04T01:31:20.812Z,18.89
2016-06-04T01:32:20.798Z,18.66
2016-06-04T01:33:20.770Z,18.59
2016-06-04T01:34:20.756Z,18.65
2016-06-04T01:35:20.745Z,18.63
2016-06-04T01:36:20.731Z,18.63
2016-06-04T01:37:20.703Z,18.77
2016-06-04T01:38:20.690Z,18.81
2016-06-04T01:39:20.676Z,18.62
2016-06-04T01:40:20.664Z,18.73
2016-06-04T01:41:20.901Z,18.59
2016-06-04T01:42:20.622Z,18.6
2016-06-04T01:43:20.625Z,18.73
2016-06-04T01:44:20.597Z,18.7
2016-06-04T01:45:20.583Z,18.65
2016-06-04T01:46:20.570Z,18.8
2016-06-04T01:47:20.573Z,18.83
2016-06-04T01:48:20.530Z,18.58
2016-06-04T01:49:20.516Z,18.49
2016-06-04T01:50:20.503Z,18.43
2016-06-04T01:51:20.474Z,18.62
2016-06-04T01:52:20.305Z,18.65
2016-06-04T01:53:20.293Z,18.66
2016-06-04T01:54:20.420Z,18.65
2016-06-04T01:55:20.423Z,18.68
2016-06-04T01:56:20.410Z,18.59
2016-06-04T01:57:20.382Z,18.52
2016-06-04T01:58:20.385Z,18.65
2016-06-04T01:59:20.355Z,18.71
2016-06-04T02:00:20.342Z,18.77
2016-06-04T02:01:20.158Z,18.81
2016-06-04T02:02:20.301Z,18.74
2016-06-04T02:03:20.287Z,18.7
2016-06-04T02:04:20.119Z,18.77
2016-06-04T02:05:20.246Z,18.74
2016-06-04T02:06:20.233Z,18.62
2016-06-04T02:07:20.221Z,18.56
2016-06-04T02:08:20.208Z,18.66
2016-06-04T02:09:20.038Z,18.65
2016-06-04T02:10:20.167Z,18.47
2016-06-04T02:11:20.607Z,18.55
2016-06-04T02:12:20.124Z,18.6
2016-06-04T02:13:20.128Z,18.52
2016-06-04T02:14:20.099Z,18.43
2016-06-04T02:15:20.086Z,18.37
2016-06-04T02:16:20.072Z,18.37
2016-06-04T02:17:20.060Z,18.41
2016-06-04T02:18:20.047Z,18.44
2016-06-04T02:19:20.034Z,18.53
2016-06-04T02:20:20.021Z,18.45
2016-06-04T02:21:19.993Z,18.49
2016-06-04T02:22:19.824Z,18.49
2016-06-04T02:23:19.952Z,18.47
2016-06-04T02:24:19.955Z,18.45
2016-06-04T02:25:19.925Z,18.63
2016-06-04T02:26:19.912Z,18.62
2016-06-04T02:27:19.899Z,18.6
2016-06-04T02:28:19.871Z,18.8
2016-06-04T02:29:19.857Z,18.74
2016-06-04T02:30:19.845Z,18.65
2016-06-04T02:31:19.816Z,18.8
2016-06-04T02:32:19.835Z,18.83
2016-06-04T02:33:19.790Z,18.83
2016-06-04T02:34:19.778Z,18.88
2016-06-04T02:35:19.765Z,18.77
2016-06-04T02:36:19.737Z,18.68
2016-06-04T02:37:19.723Z,18.75
2016-06-04T02:38:19.709Z,18.62
2016-06-04T02:39:19.698Z,18.59
2016-06-04T02:40:19.669Z,18.62
2016-06-04T02:41:20.328Z,18.58
2016-06-04T02:42:19.643Z,18.65
2016-06-04T02:43:19.473Z,18.63
2016-06-04T02:44:19.601Z,18.62
2016-06-04T02:45:19.604Z,18.68
2016-06-04T02:46:19.575Z,18.66
2016-06-04T02:47:19.563Z,18.62
2016-06-04T02:48:19.549Z,18.59
2016-06-04T02:49:19.521Z,18.52
2016-06-04T02:50:19.508Z,18.43
2016-06-04T02:51:19.495Z,18.4
2016-06-04T02:52:19.482Z,18.5
2016-06-04T02:53:19.469Z,18.62
2016-06-04T02:54:19.457Z,18.6
2016-06-04T02:55:19.444Z,18.56
2016-06-04T02:56:19.899Z,18.37
2016-06-04T02:57:19.402Z,18.19
2016-06-04T02:58:19.373Z,18.31
2016-06-04T02:59:19.360Z,18.37
2016-06-04T03:00:19.348Z,18.35
2016-06-04T03:01:19.335Z,18.31
2016-06-04T03:02:19.321Z,18.33
2016-06-04T03:03:19.309Z,18.5
2016-06-04T03:04:19.280Z,18.52
2016-06-04T03:05:19.268Z,18.59
2016-06-04T03:06:19.254Z,18.37
2016-06-04T03:07:19.242Z,18.37
2016-06-04T03:08:19.229Z,18.33
2016-06-04T03:09:19.200Z,18.41
2016-06-04T03:10:19.187Z,18.47
2016-06-04T03:11:19.205Z,18.45
2016-06-04T03:12:19.145Z,18.5
2016-06-04T03:13:18.976Z,18.49
2016-06-04T03:14:19.120Z,18.41
2016-06-04T03:15:19.091Z,18.41
2016-06-04T03:16:19.094Z,18.52
2016-06-04T03:17:19.081Z,18.49
2016-06-04T03:18:19.052Z,18.44
2016-06-04T03:19:18.884Z,18.41
2016-06-04T03:20:19.027Z,18.11
2016-06-04T03:21:19.013Z,18.26
2016-06-04T03:22:19.298Z,18.4
2016-06-04T03:23:18.988Z,18.49
2016-06-04T03:24:18.975Z,18.52
2016-06-04T03:25:18.930Z,18.49
2016-06-04T03:26:19.355Z,18.62
2016-06-04T03:27:18.905Z,18.63
2016-06-04T03:28:18.908Z,18.66
2016-06-04T03:29:18.894Z,18.47
2016-06-04T03:30:18.866Z,18.11
2016-06-04T03:31:18.853Z,18.16
2016-06-04T03:32:18.825Z,18.05
2016-06-04T03:33:18.795Z,18.03
2016-06-04T03:34:18.783Z,18.16
2016-06-04T03:35:18.770Z,18.16
2016-06-04T03:36:18.757Z,18.19
2016-06-04T03:37:18.728Z,18.28
2016-06-04T03:38:18.715Z,18.34
2016-06-04T03:39:18.703Z,18.25
2016-06-04T03:40:18.690Z,18.4
2016-06-04T03:41:19.239Z,18.45
2016-06-04T03:42:18.664Z,18.29
2016-06-04T03:43:18.681Z,18.33
2016-06-04T03:44:18.637Z,18.22
2016-06-04T03:45:18.609Z,18.23
2016-06-04T03:46:18.612Z,18.25
2016-06-04T03:47:18.584Z,18.01
2016-06-04T03:48:18.570Z,18.04
2016-06-04T03:49:18.542Z,18.01
2016-06-04T03:50:18.528Z,18.05
2016-06-04T03:51:18.500Z,18.03
2016-06-04T03:52:18.487Z,18.11
2016-06-04T03:53:18.475Z,18.16
2016-06-04T03:54:18.446Z,18.1
2016-06-04T03:55:18.433Z,17.98
2016-06-04T03:56:18.935Z,17.9
2016-06-04T03:57:18.407Z,18.05
2016-06-04T03:58:18.394Z,18.08
2016-06-04T03:59:18.382Z,18.11
2016-06-04T04:00:18.352Z,18.1
2016-06-04T04:01:18.340Z,18.11
2016-06-04T04:02:18.155Z,18.1
2016-06-04T04:03:18.314Z,18.18
2016-06-04T04:04:18.285Z,18.19
2016-06-04T04:05:18.288Z,18.16
2016-06-04T04:06:18.260Z,18.01
2016-06-04T04:07:18.246Z,18.03
2016-06-04T04:08:18.234Z,18.05
2016-06-04T04:09:18.220Z,18.08
2016-06-04T04:10:18.192Z,18.16
2016-06-04T04:11:18.179Z,18.08
2016-06-04T04:12:18.151Z,18.26
2016-06-04T04:13:17.981Z,18.34
2016-06-04T04:14:18.125Z,18.25
2016-06-04T04:15:18.096Z,18.28
2016-06-04T04:16:18.098Z,18.22
2016-06-04T04:17:18.086Z,18.2
2016-06-04T04:18:18.058Z,18.22
2016-06-04T04:19:18.060Z,18.29
2016-06-04T04:20:18.031Z,18.38
2016-06-04T04:21:18.003Z,18.41
2016-06-04T04:22:17.990Z,18.47
2016-06-04T04:23:17.977Z,18.45
2016-06-04T04:24:17.949Z,18.5
2016-06-04T04:25:17.936Z,18.49
2016-06-04T04:26:19.689Z,18.5
2016-06-04T04:27:17.910Z,18.52
2016-06-04T04:28:17.897Z,18.5
2016-06-04T04:29:17.869Z,18.47
2016-06-04T04:30:17.855Z,18.52
2016-06-04T04:31:17.826Z,18.41
2016-06-04T04:32:17.813Z,18.44
2016-06-04T04:33:17.816Z,18.56
2016-06-04T04:34:17.804Z,18.59
2016-06-04T04:35:17.774Z,18.52
2016-06-04T04:36:17.856Z,18.38
2016-06-04T04:37:17.749Z,18.43
2016-06-04T04:38:17.720Z,18.55
2016-06-04T04:39:17.552Z,18.59
2016-06-04T04:40:17.695Z,18.63
2016-06-04T04:41:17.932Z,18.66
2016-06-04T04:42:17.653Z,18.71
2016-06-04T04:43:17.640Z,18.77
2016-06-04T04:44:17.628Z,18.78
2016-06-04T04:45:17.615Z,18.74
2016-06-04T04:46:17.601Z,18.77
2016-06-04T04:47:17.573Z,18.71
2016-06-04T04:48:17.575Z,18.66
2016-06-04T04:49:17.422Z,18.6
2016-06-04T04:50:17.534Z,18.59
2016-06-04T04:51:17.506Z,18.66
2016-06-04T04:52:17.492Z,18.65
2016-06-04T04:53:17.480Z,18.63
2016-06-04T04:54:17.467Z,18.62
2016-06-04T04:55:17.454Z,18.84
2016-06-04T04:56:17.660Z,18.95
2016-06-04T04:57:17.427Z,18.84
2016-06-04T04:58:17.416Z,18.93
2016-06-04T04:59:17.402Z,19.08
2016-06-04T05:00:17.357Z,19.16
2016-06-04T05:01:17.344Z,19.18
2016-06-04T05:02:17.347Z,19.16
2016-06-04T05:03:17.319Z,18.96
2016-06-04T05:04:17.307Z,18.86
2016-06-04T05:05:17.293Z,18.83
2016-06-04T05:06:17.265Z,18.47
2016-06-04T05:07:17.252Z,18.6
2016-06-04T05:08:17.254Z,18.77
2016-06-04T05:09:17.070Z,18.74
2016-06-04T05:10:17.213Z,18.81
2016-06-04T05:11:17.403Z,18.83
2016-06-04T05:12:17.171Z,18.98
2016-06-04T05:13:17.159Z,18.99
2016-06-04T05:14:17.130Z,19.04
2016-06-04T05:15:17.132Z,19.26
2016-06-04T05:16:17.119Z,19.29
2016-06-04T05:17:17.092Z,19.26
2016-06-04T05:18:17.062Z,19.22
2016-06-04T05:19:17.050Z,19.29
2016-06-04T05:20:17.037Z,19.14
2016-06-04T05:21:17.056Z,18.96
2016-06-04T05:22:17.011Z,19.08
2016-06-04T05:23:16.997Z,19.29
2016-06-04T05:24:16.986Z,18.96
2016-06-04T05:25:16.956Z,18.88
2016-06-04T05:26:17.334Z,18.74
2016-06-04T05:27:16.930Z,18.75
2016-06-04T05:28:16.902Z,18.7
2016-06-04T05:29:16.905Z,18.88
2016-06-04T05:30:16.891Z,19.08
2016-06-04T05:31:16.863Z,19.26
2016-06-04T05:32:16.850Z,19.27
2016-06-04T05:33:16.838Z,19.3
2016-06-04T05:34:16.808Z,19.22
2016-06-04T05:35:16.796Z,19.27
2016-06-04T05:36:16.767Z,19.26
2016-06-04T05:37:16.786Z,19.27
2016-06-04T05:38:16.757Z,19.3
2016-06-04T05:39:16.729Z,19.12
2016-06-04T05:40:16.716Z,18.99
2016-06-04T05:41:17.734Z,18.96
2016-06-04T05:42:16.674Z,19.16
2016-06-04T05:43:16.661Z,19.12
2016-06-04T05:44:16.664Z,19.09
2016-06-04T05:45:16.635Z,19.08
2016-06-04T05:46:16.622Z,18.96
2016-06-04T05:47:16.593Z,19
2016-06-04T05:48:16.581Z,18.96
2016-06-04T05:49:16.568Z,19.07
2016-06-04T05:50:16.648Z,19.22
2016-06-04T05:51:16.542Z,19.21
2016-06-04T05:52:16.529Z,19.3
2016-06-04T05:53:16.500Z,19.22
2016-06-04T05:54:16.487Z,19.27
2016-06-04T05:55:16.490Z,19.22
2016-06-04T05:56:17.024Z,19.16
2016-06-04T05:57:16.277Z,19.09
2016-06-04T05:58:16.420Z,19.19
2016-06-04T05:59:16.408Z,19.12
2016-06-04T06:00:16.394Z,19.33
2016-06-04T06:01:16.366Z,19.44
2016-06-04T06:02:16.352Z,19.47
2016-06-04T06:03:16.341Z,19.44
2016-06-04T06:04:16.327Z,19.27
2016-06-04T06:05:16.314Z,19.18
2016-06-04T06:06:16.285Z,19.34
2016-06-04T06:07:16.288Z,19.33
2016-06-04T06:08:16.259Z,19.34
2016-06-04T06:09:16.277Z,19.3
2016-06-04T06:10:16.234Z,19.4
2016-06-04T06:11:16.237Z,19.34
2016-06-04T06:12:16.207Z,19.24
2016-06-04T06:13:16.179Z,19.22
2016-06-04T06:14:16.166Z,19.08
2016-06-04T06:15:16.154Z,19.16
2016-06-04T06:16:16.140Z,19.22
2016-06-04T06:17:16.112Z,19.07
2016-06-04T06:18:16.115Z,19.07
2016-06-04T06:19:16.086Z,19.11
2016-06-04T06:20:16.073Z,19
2016-06-04T06:21:16.045Z,19.09
2016-06-04T06:22:16.031Z,19
2016-06-04T06:23:16.019Z,19.09
2016-06-04T06:24:16.005Z,19.09
2016-06-04T06:25:15.992Z,19.16
2016-06-04T06:26:15.965Z,19.26
2016-06-04T06:27:15.951Z,19.24
2016-06-04T06:28:15.953Z,19.09
2016-06-04T06:29:15.925Z,19.11
2016-06-04T06:30:15.913Z,19.19
2016-06-04T06:31:15.883Z,19.19
2016-06-04T06:32:15.886Z,19.26
2016-06-04T06:33:15.874Z,19.26
2016-06-04T06:34:15.845Z,19.26
2016-06-04T06:35:15.816Z,19.08
2016-06-04T06:36:15.819Z,19.19
2016-06-04T06:37:15.791Z,19.21
2016-06-04T06:38:15.777Z,19.11
2016-06-04T06:39:15.765Z,19.3
2016-06-04T06:40:15.752Z,18.93
2016-06-04T06:41:15.879Z,18.8
2016-06-04T06:42:15.726Z,18.8
2016-06-04T06:43:15.698Z,18.83
2016-06-04T06:44:15.684Z,19.04
2016-06-04T06:45:15.656Z,19.19
2016-06-04T06:46:15.643Z,19.19
2016-06-04T06:47:15.630Z,19.18
2016-06-04T06:48:15.632Z,19.44
2016-06-04T06:49:15.620Z,19.45
2016-06-04T06:50:15.575Z,19.27
2016-06-04T06:51:15.563Z,19.31
2016-06-04T06:52:15.550Z,19.31
2016-06-04T06:53:15.553Z,19.39
2016-06-04T06:54:15.523Z,19.29
2016-06-04T06:55:15.511Z,19.31
2016-06-04T06:56:15.639Z,19.31
2016-06-04T06:57:15.485Z,19.37
2016-06-04T06:58:15.441Z,19.33
2016-06-04T06:59:15.444Z,19.44
2016-06-04T07:00:15.431Z,19.48
2016-06-04T07:01:15.418Z,19.51
2016-06-04T07:02:15.405Z,19.64
2016-06-04T07:03:15.392Z,19.51
2016-06-04T07:04:15.207Z,19.54
2016-06-04T07:05:15.335Z,19.51
2016-06-04T07:06:15.338Z,19.48
2016-06-04T07:07:15.309Z,19.52
2016-06-04T07:08:15.296Z,19.76
2016-06-04T07:09:15.267Z,19.58
2016-06-04T07:10:15.270Z,19.48
2016-06-04T07:11:16.023Z,19.45
2016-06-04T07:12:15.228Z,19.59
2016-06-04T07:13:15.215Z,19.54
2016-06-04T07:14:15.219Z,19.77
2016-06-04T07:15:15.190Z,19.84
2016-06-04T07:16:15.161Z,19.54
2016-06-04T07:17:15.148Z,19.48
2016-06-04T07:18:15.120Z,19.56
2016-06-04T07:19:15.123Z,19.31
2016-06-04T07:20:15.093Z,19.47
2016-06-04T07:21:15.096Z,19.54
2016-06-04T07:22:14.912Z,19.54
2016-06-04T07:23:15.056Z,19.56
2016-06-04T07:24:14.886Z,19.67
2016-06-04T07:25:15.013Z,19.66
2016-06-04T07:26:15.376Z,19.74
2016-06-04T07:27:14.987Z,19.82
2016-06-04T07:28:14.975Z,19.88
2016-06-04T07:29:14.962Z,20.02
2016-06-04T07:30:14.933Z,20.13
2016-06-04T07:31:14.936Z,20
2016-06-04T07:32:14.907Z,19.74
2016-06-04T07:33:14.878Z,19.55
2016-06-04T07:34:14.881Z,19.39
2016-06-04T07:35:14.853Z,19.34
2016-06-04T07:36:14.840Z,19.19
2016-06-04T07:37:14.827Z,19.41
2016-06-04T07:38:14.814Z,19.4
2016-06-04T07:39:14.802Z,19.4
2016-06-04T07:40:14.772Z,19.33
2016-06-04T07:41:14.775Z,19.31
2016-06-04T07:42:14.747Z,19.45
2016-06-04T07:43:14.735Z,19.44
2016-06-04T07:44:14.721Z,19.52
2016-06-04T07:45:14.692Z,19.55
2016-06-04T07:46:14.679Z,19.54
2016-06-04T07:47:14.682Z,19.71
2016-06-04T07:48:14.654Z,19.76
2016-06-04T07:49:14.640Z,19.66
2016-06-04T07:50:14.628Z,19.62
2016-06-04T07:51:14.615Z,19.69
2016-06-04T07:52:14.586Z,19.67
2016-06-04T07:53:14.573Z,19.66
2016-06-04T07:54:14.700Z,19.88
2016-06-04T07:55:14.532Z,19.89
2016-06-04T07:56:15.409Z,20.04
2016-06-04T07:57:14.365Z,20.14
2016-06-04T07:58:14.493Z,20.03
2016-06-04T07:59:14.480Z,20.21
2016-06-04T08:00:14.483Z,20.19
2016-06-04T08:01:14.439Z,20.16
2016-06-04T08:02:14.425Z,20.03
2016-06-04T08:03:14.256Z,19.85
2016-06-04T08:04:14.400Z,19.92
2016-06-04T08:05:14.386Z,20
2016-06-04T08:06:14.217Z,20.06
2016-06-04T08:07:15.283Z,20.09
2016-06-04T08:08:14.333Z,20.09
2016-06-04T08:09:14.335Z,19.86
2016-06-04T08:10:14.307Z,19.96
2016-06-04T08:11:14.137Z,19.77
2016-06-04T08:12:14.265Z,20
2016-06-04T08:13:14.268Z,20.11
2016-06-04T08:14:14.254Z,20.1
2016-06-04T08:15:14.227Z,20.16
2016-06-04T08:16:14.213Z,20.09
2016-06-04T08:17:14.201Z,20.04
2016-06-04T08:18:14.171Z,19.94
2016-06-04T08:19:14.159Z,20.03
2016-06-04T08:20:14.177Z,20.09
2016-06-04T08:21:14.132Z,20.13
2016-06-04T08:22:14.120Z,20.22
2016-06-04T08:23:13.950Z,19.99
2016-06-04T08:24:14.095Z,19.84
2016-06-04T08:25:14.065Z,20.06
2016-06-04T08:26:14.068Z,20.11
2016-06-04T08:27:14.040Z,20.22
2016-06-04T08:28:14.026Z,20.34
2016-06-04T08:29:14.014Z,20.51
2016-06-04T08:30:14.000Z,20.59
2016-06-04T08:31:13.972Z,20.58
2016-06-04T08:32:13.975Z,20.51
2016-06-04T08:33:13.946Z,20.47
2016-06-04T08:34:13.934Z,20.59
2016-06-04T08:35:13.905Z,20.55
2016-06-04T08:36:14.547Z,20.67
2016-06-04T08:37:13.925Z,20.85
2016-06-04T08:38:13.866Z,20.69
2016-06-04T08:39:15.946Z,20.63
2016-06-04T08:40:13.840Z,20.8
2016-06-04T08:41:13.827Z,20.67
2016-06-04T08:42:14.235Z,20.84
2016-06-04T08:43:13.645Z,20.99
2016-06-04T08:44:13.789Z,20.88
2016-06-04T08:45:13.760Z,20.81
2016-06-04T08:46:13.763Z,20.92
2016-06-04T08:47:13.734Z,21.07
2016-06-04T08:48:13.721Z,21.2
2016-06-04T08:49:13.693Z,21.2
2016-06-04T08:50:13.695Z,21.25
2016-06-04T08:51:13.682Z,21.2
2016-06-04T08:52:13.654Z,21.24
2016-06-04T08:53:13.640Z,21.14
2016-06-04T08:54:13.628Z,21.03
2016-06-04T08:55:13.615Z,21.21
2016-06-04T08:56:13.601Z,21.33
2016-06-04T08:57:13.573Z,21.39
2016-06-04T08:58:13.420Z,21.5
2016-06-04T08:59:13.563Z,21.43
2016-06-04T09:00:13.550Z,21.12
2016-06-04T09:01:13.522Z,21.21
2016-06-04T09:02:13.509Z,21.29
2016-06-04T09:03:13.511Z,21.33
2016-06-04T09:04:13.483Z,21.3
2016-06-04T09:05:13.470Z,21.5
2016-06-04T09:06:13.458Z,21.29
2016-06-04T09:07:13.444Z,21.46
2016-06-04T09:08:13.416Z,21.45
2016-06-04T09:09:13.419Z,21.62
2016-06-04T09:10:13.389Z,21.82
2016-06-04T09:11:13.392Z,21.75
2016-06-04T09:12:13.395Z,21.67
2016-06-04T09:13:13.538Z,21.79
2016-06-04T09:14:13.182Z,21.8
2016-06-04T09:15:13.168Z,21.96
2016-06-04T09:16:13.313Z,22.02
2016-06-04T09:17:13.143Z,22.14
2016-06-04T09:18:13.129Z,22.2
2016-06-04T09:19:13.258Z,22.17
2016-06-04T09:20:13.245Z,22.25
2016-06-04T09:21:13.232Z,22.13
2016-06-04T09:22:13.219Z,22.33
2016-06-04T09:23:13.206Z,22.33
2016-06-04T09:24:13.193Z,22.39
2016-06-04T09:25:13.165Z,22.38
2016-06-04T09:26:13.167Z,22.36
2016-06-04T09:27:13.170Z,22.32
2016-06-04T09:28:13.234Z,22.43
2016-06-04T09:29:13.129Z,22.45
2016-06-04T09:30:13.115Z,22.47
2016-06-04T09:31:13.102Z,22.5
2016-06-04T09:32:12.933Z,22.7
2016-06-04T09:33:13.062Z,22.44
2016-06-04T09:34:13.048Z,22.23
2016-06-04T09:35:13.036Z,22.26
2016-06-04T09:36:13.022Z,22.36
2016-06-04T09:37:13.009Z,22.28
2016-06-04T09:38:12.997Z,22.36
2016-06-04T09:39:12.999Z,22.59
2016-06-04T09:40:12.970Z,22.65
2016-06-04T09:41:12.958Z,22.41
2016-06-04T09:42:12.945Z,22.53
2016-06-04T09:43:12.947Z,22.66
2016-06-04T09:44:12.935Z,22.48
2016-06-04T09:45:12.905Z,22.2
2016-06-04T09:46:12.877Z,21.93
2016-06-04T09:47:12.864Z,21.77
2016-06-04T09:48:12.851Z,21.98
2016-06-04T09:49:12.854Z,21.95
2016-06-04T09:50:12.826Z,21.66
2016-06-04T09:51:12.813Z,21.75
2016-06-04T09:52:12.799Z,21.7
2016-06-04T09:53:12.801Z,21.7
2016-06-04T09:54:12.774Z,21.8
2016-06-04T09:55:12.760Z,21.88
2016-06-04T09:56:12.748Z,21.61
2016-06-04T09:57:12.578Z,21.72
2016-06-04T09:58:12.691Z,21.69
2016-06-04T09:59:12.709Z,21.77
2016-06-04T10:00:12.696Z,21.88
2016-06-04T10:01:15.683Z,21.8
2016-06-04T10:02:12.670Z,22.04
2016-06-04T10:03:12.501Z,22
2016-06-04T10:04:12.645Z,21.98
2016-06-04T10:05:12.648Z,22.1
2016-06-04T10:06:15.023Z,22.13
2016-06-04T10:07:12.678Z,22.18
2016-06-04T10:08:12.678Z,22.48
2016-06-04T10:09:12.708Z,22.48
2016-06-04T10:10:12.695Z,22.38
2016-06-04T10:11:12.880Z,22.6
2016-06-04T10:12:12.690Z,22.66
2016-06-04T10:13:12.719Z,22.75
2016-06-04T10:14:12.918Z,22.8
2016-06-04T10:15:12.677Z,22.75
2016-06-04T10:16:14.965Z,23.02
2016-06-04T10:17:12.657Z,23.03
2016-06-04T10:18:12.647Z,23
2016-06-04T10:19:12.639Z,23.09
2016-06-04T10:20:12.644Z,22.96
2016-06-04T10:21:12.617Z,22.78
2016-06-04T10:22:12.605Z,22.7
2016-06-04T10:23:12.625Z,22.69
2016-06-04T10:24:12.598Z,22.55
2016-06-04T10:25:12.570Z,22.69
2016-06-04T10:26:12.557Z,22.72
2016-06-04T10:27:12.546Z,22.73
2016-06-04T10:28:14.017Z,22.88
2016-06-04T10:29:12.849Z,22.94
2016-06-04T10:30:12.491Z,22.84
2016-06-04T10:31:12.479Z,22.73
2016-06-04T10:32:12.482Z,22.69
2016-06-04T10:33:12.452Z,22.59
2016-06-04T10:34:12.455Z,22.57
2016-06-04T10:35:12.427Z,22.68
2016-06-04T10:36:12.429Z,22.76
2016-06-04T10:37:12.401Z,22.96
2016-06-04T10:38:12.388Z,22.96
2016-06-04T10:39:12.376Z,22.8
2016-06-04T10:40:12.378Z,22.93
2016-06-04T10:41:12.349Z,22.68
2016-06-04T10:42:12.352Z,22.93
2016-06-04T10:43:14.730Z,22.98
2016-06-04T10:44:12.842Z,23.02
2016-06-04T10:45:12.314Z,23.03
2016-06-04T10:46:12.284Z,23.12
2016-06-04T10:47:12.304Z,22.93
2016-06-04T10:48:12.275Z,22.81
2016-06-04T10:49:12.261Z,22.91
2016-06-04T10:50:12.077Z,22.81
2016-06-04T10:51:12.220Z,23.05
2016-06-04T10:52:12.208Z,23.32
2016-06-04T10:53:12.194Z,23.15
2016-06-04T10:54:12.213Z,23.2
2016-06-04T10:55:12.183Z,23.24
2016-06-04T10:56:11.999Z,23.23
2016-06-04T10:57:12.158Z,23.43
2016-06-04T10:58:12.551Z,23.61
2016-06-04T10:59:12.133Z,23.44
2016-06-04T11:00:12.104Z,23.74
2016-06-04T11:01:12.107Z,24.05
2016-06-04T11:02:12.094Z,23.96
2016-06-04T11:03:12.081Z,24.17
2016-06-04T11:04:12.068Z,24.26
2016-06-04T11:05:12.055Z,24.38
2016-06-04T11:06:12.104Z,23.96
2016-06-04T11:07:12.029Z,23.66
2016-06-04T11:08:12.016Z,23.87
2016-06-04T11:09:12.003Z,23.93
2016-06-04T11:10:11.990Z,24.14
2016-06-04T11:11:11.976Z,23.99
2016-06-04T11:12:11.980Z,24.35
2016-06-04T11:13:11.982Z,24.35
2016-06-04T11:14:11.813Z,24.23
2016-06-04T11:15:11.926Z,24.42
2016-06-04T11:16:11.929Z,24.73
2016-06-04T11:17:11.915Z,25.08
2016-06-04T11:18:11.887Z,24.91
2016-06-04T11:19:11.874Z,24.99
2016-06-04T11:20:11.861Z,25.16
2016-06-04T11:21:11.848Z,25.21
2016-06-04T11:22:12.022Z,25.32
2016-06-04T11:23:11.822Z,25.36
2016-06-04T11:24:11.809Z,25.81
2016-06-04T11:25:11.797Z,25.07
2016-06-04T11:26:11.799Z,25.13
2016-06-04T11:27:12.036Z,25.36
2016-06-04T11:28:12.117Z,25.21
2016-06-04T11:29:11.761Z,25.16
2016-06-04T11:30:11.731Z,25.23
2016-06-04T11:31:11.766Z,24.93
2016-06-04T11:32:11.721Z,24.95
2016-06-04T11:33:11.708Z,24.68
2016-06-04T11:34:11.696Z,24.69
2016-06-04T11:35:11.699Z,24.63
2016-06-04T11:36:11.685Z,24.54
2016-06-04T11:37:11.687Z,24.95
2016-06-04T11:38:11.660Z,25.11
2016-06-04T11:39:11.646Z,25.1
2016-06-04T11:40:11.633Z,24.76
2016-06-04T11:41:12.104Z,24.93
2016-06-04T11:42:11.638Z,25.22
2016-06-04T11:43:11.625Z,25.28
2016-06-04T11:44:11.598Z,26.06
2016-06-04T11:45:11.600Z,26.58
2016-06-04T11:46:11.586Z,26.62
2016-06-04T11:47:11.590Z,25.87
2016-06-04T11:48:11.655Z,26.19
2016-06-04T11:49:11.564Z,26.36
2016-06-04T11:50:11.582Z,26.37
2016-06-04T11:51:11.413Z,26.16
2016-06-04T11:52:11.556Z,25.8
2016-06-04T11:53:11.543Z,25.6
2016-06-04T11:54:11.546Z,24.88
2016-06-04T11:55:11.548Z,24.61
2016-06-04T11:56:11.550Z,25.04
2016-06-04T11:57:11.820Z,25.33
2016-06-04T11:58:11.510Z,25.8
2016-06-04T11:59:11.369Z,25.99
2016-06-04T12:00:11.513Z,26.16
2016-06-04T12:01:11.516Z,26.52
2016-06-04T12:02:11.518Z,26.95
2016-06-04T12:03:11.505Z,27.11
2016-06-04T12:04:11.507Z,27.35
2016-06-04T12:05:11.495Z,27.73
2016-06-04T12:06:11.497Z,27.7
2016-06-04T12:07:11.485Z,27.7
2016-06-04T12:08:11.487Z,27.58
2016-06-04T12:09:11.491Z,27.55
2016-06-04T12:10:11.321Z,27.07
2016-06-04T12:11:11.636Z,26.44
2016-06-04T12:12:11.841Z,26.15
2016-06-04T12:13:11.485Z,25.51
2016-06-04T12:14:11.472Z,25.35
2016-06-04T12:15:11.474Z,26.1
2016-06-04T12:16:11.446Z,26.1
2016-06-04T12:17:11.449Z,25.99
2016-06-04T12:18:11.451Z,25.77
2016-06-04T12:19:11.439Z,26.07
2016-06-04T12:20:11.442Z,25.55
2016-06-04T12:21:11.445Z,26.21
2016-06-04T12:22:11.431Z,26.09
2016-06-04T12:23:11.434Z,26.38
2016-06-04T12:24:11.420Z,26.48
2016-06-04T12:25:11.408Z,26.38
2016-06-04T12:26:11.411Z,26.23
2016-06-04T12:27:11.397Z,26.8
2016-06-04T12:28:11.323Z,26.62
2016-06-04T12:29:11.403Z,27.33
2016-06-04T12:30:11.390Z,27.25
2016-06-04T12:31:11.377Z,27.12
2016-06-04T12:32:11.364Z,27.03
2016-06-04T12:33:11.367Z,26.09
2016-06-04T12:34:11.354Z,26.02
2016-06-04T12:35:11.372Z,25.65
2016-06-04T12:36:11.360Z,25.5
2016-06-04T12:37:11.347Z,25.28
2016-06-04T12:38:11.333Z,25.99
2016-06-04T12:39:11.336Z,26.05
2016-06-04T12:40:11.324Z,26.37
2016-06-04T12:41:11.326Z,26.02
2016-06-04T12:42:11.688Z,25.28
2016-06-04T12:43:11.160Z,24.78
2016-06-04T12:44:11.302Z,24.61
2016-06-04T12:45:11.305Z,24.96
2016-06-04T12:46:11.307Z,24.54
2016-06-04T12:47:11.280Z,24.55
2016-06-04T12:48:11.267Z,24.18
2016-06-04T12:49:11.270Z,24.36
2016-06-04T12:50:11.490Z,24.16
2016-06-04T12:51:11.259Z,23.99
2016-06-04T12:52:11.231Z,23.86
2016-06-04T12:53:11.233Z,23.87
2016-06-04T12:54:11.220Z,24.01
2016-06-04T12:55:11.207Z,23.99
2016-06-04T12:56:11.304Z,24.02